createdAt,value
2023-02-16T00:01:27.600Z,13.15
2023-02-16T00:03:56.953Z,11.65
2023-02-16T00:06:26.179Z,12.57
2023-02-16T00:08:56.232Z,13.77
2023-02-16T00:11:48.203Z,12.50
2023-02-16T00:14:16.406Z,12.35
2023-02-16T00:16:44.851Z,10.98
2023-02-16T00:19:29.035Z,12.32
2023-02-16T00:21:59.422Z,12.77
2023-02-16T00:24:29.530Z,14.45
2023-02-16T00:26:58.901Z,14.88
2023-02-16T00:29:38.335Z,15.35
2023-02-16T00:32:12.813Z,21.05
2023-02-16T00:34:44.128Z,22.03
2023-02-16T00:37:14.318Z,19.95
2023-02-16T00:39:43.738Z,20.95
2023-02-16T00:42:24.771Z,18.15
2023-02-16T00:44:54.697Z,18.98
2023-02-16T00:47:35.311Z,16.63
2023-02-16T00:50:04.212Z,15.02
2023-02-16T00:52:43.613Z,13.18
2023-02-16T00:55:15.276Z,14.95
2023-02-16T00:57:53.284Z,15.68
2023-02-16T01:00:30.576Z,15.90
2023-02-16T01:03:01.738Z,13.07
2023-02-16T01:10:19.080Z,12.25
2023-02-16T01:12:46.847Z,15.82
2023-02-16T01:15:19.405Z,17.53
2023-02-16T01:17:47.114Z,18.25
2023-02-16T01:20:25.310Z,21.65
2023-02-16T01:22:53.028Z,20.23
2023-02-16T01:25:21.123Z,23.58
2023-02-16T01:27:49.421Z,23.50
2023-02-16T01:30:24.179Z,22.33
2023-02-16T01:32:52.650Z,21.17
2023-02-16T01:35:31.120Z,21.67
2023-02-16T01:37:58.987Z,19.13
2023-02-16T01:40:46.965Z,19.77
2023-02-16T01:43:26.733Z,19.70
2023-02-16T01:46:06.364Z,19.50
2023-02-16T01:48:34.193Z,19.85
2023-02-16T01:51:41.233Z,19.70
2023-02-16T01:54:36.146Z,17.23
2023-02-16T01:57:15.077Z,18.70
2023-02-16T01:59:50.426Z,19.25
2023-02-16T02:02:24.732Z,17.23
2023-02-16T02:05:16.710Z,17.65
2023-02-16T02:07:59.087Z,14.83
2023-02-16T02:10:36.310Z,16.05
2023-02-16T02:13:11.893Z,16.65
2023-02-16T02:15:39.825Z,16.40
2023-02-16T02:18:07.950Z,16.20
2023-02-16T02:21:09.652Z,14.93
2023-02-16T02:23:52.842Z,16.40
2023-02-16T02:26:45.965Z,18.67
2023-02-16T02:29:30.956Z,19.10
2023-02-16T02:32:23.188Z,18.50
2023-02-16T02:35:12.530Z,20.37
2023-02-16T02:37:58.185Z,22.48
2023-02-16T02:40:48.093Z,21.60
2023-02-16T02:43:44.237Z,24.35
2023-02-16T02:46:25.120Z,23.80
2023-02-16T02:48:53.399Z,24.37
2023-02-16T02:51:29.085Z,23.77
2023-02-16T02:54:40.553Z,24.45
2023-02-16T02:57:43.025Z,26.52
2023-02-16T03:00:41.964Z,25.75
2023-02-16T03:03:34.254Z,24.03
2023-02-16T03:06:10.313Z,24.88
2023-02-16T03:08:43.640Z,25.55
2023-02-16T03:11:41.902Z,23.35
2023-02-16T03:14:31.514Z,23.80
2023-02-16T03:17:20.756Z,23.87
2023-02-16T03:20:09.865Z,25.15
2023-02-16T03:22:58.086Z,24.42
2023-02-16T03:25:48.558Z,26.70
2023-02-16T03:28:38.993Z,26.85
2023-02-16T03:31:10.701Z,26.23
2023-02-16T03:33:38.956Z,28.10
2023-02-16T03:36:08.453Z,27.80
2023-02-16T03:38:36.568Z,26.02
2023-02-16T03:41:05.001Z,29.00
2023-02-16T03:43:33.219Z,27.60
2023-02-16T03:46:01.669Z,29.38
2023-02-16T03:48:29.597Z,26.80
2023-02-16T03:50:58.040Z,28.27
2023-02-16T03:53:25.951Z,29.42
2023-02-16T03:55:54.585Z,27.90
2023-02-16T03:58:24.699Z,27.75
2023-02-16T04:00:53.467Z,29.13
2023-02-16T04:06:18.742Z,26.98
2023-02-16T04:08:46.764Z,31.70
2023-02-16T04:11:33.155Z,31.58
2023-02-16T04:14:26.223Z,31.95
2023-02-16T04:16:56.566Z,26.67
2023-02-16T04:19:25.163Z,28.05
2023-02-16T04:21:55.709Z,27.77
2023-02-16T04:28:08.765Z,21.38
2023-02-16T04:30:37.017Z,30.75
2023-02-16T04:33:04.833Z,30.08
2023-02-16T04:35:33.113Z,29.50
2023-02-16T04:38:00.832Z,30.58
2023-02-16T04:40:29.361Z,28.40
2023-02-16T04:42:57.103Z,29.90
2023-02-16T04:45:25.504Z,31.63
2023-02-16T04:47:53.147Z,28.43
2023-02-16T04:50:21.404Z,27.95
2023-02-16T04:52:49.104Z,29.05
2023-02-16T04:55:17.496Z,29.27
2023-02-16T04:58:10.769Z,35.53
2023-02-16T05:00:38.825Z,29.60
2023-02-16T05:03:06.500Z,30.15
2023-02-16T05:05:35.634Z,26.70
2023-02-16T05:08:04.105Z,30.55
2023-02-16T05:10:35.375Z,31.33
2023-02-16T05:13:22.378Z,33.80
2023-02-16T05:15:50.501Z,30.85
2023-02-16T05:18:18.253Z,33.80
2023-02-16T05:21:07.913Z,39.78
2023-02-16T05:23:35.681Z,32.05
2023-02-16T05:26:03.987Z,30.50
2023-02-16T05:28:31.896Z,34.00
2023-02-16T05:30:59.928Z,29.80
2023-02-16T05:33:28.013Z,31.60
2023-02-16T05:35:56.644Z,31.65
2023-02-16T05:38:28.021Z,32.90
2023-02-16T05:40:56.211Z,39.90
2023-02-16T05:43:23.882Z,30.77
2023-02-16T05:45:52.115Z,30.55
2023-02-16T05:48:19.816Z,30.45
2023-02-16T05:50:48.055Z,28.87
2023-02-16T05:53:15.972Z,30.52
2023-02-16T05:55:44.556Z,32.17
2023-02-16T05:58:12.312Z,32.88
2023-02-16T06:00:40.491Z,32.90
2023-02-16T06:03:08.135Z,34.10
2023-02-16T06:05:36.379Z,35.80
2023-02-16T06:08:04.190Z,32.17
2023-02-16T06:10:35.313Z,31.20
2023-02-16T06:13:03.853Z,33.95
2023-02-16T06:15:32.215Z,33.93
2023-02-16T06:18:00.500Z,31.23
2023-02-16T06:20:29.078Z,33.70
2023-02-16T06:22:57.674Z,36.40
2023-02-16T06:25:25.696Z,27.75
2023-02-16T06:27:53.460Z,24.90
2023-02-16T06:30:21.573Z,31.30
2023-02-16T06:32:49.750Z,33.38
2023-02-16T06:35:18.416Z,29.58
2023-02-16T06:37:46.311Z,29.38
2023-02-16T06:40:15.925Z,29.77
2023-02-16T06:42:44.624Z,29.75
2023-02-16T06:45:13.138Z,29.50
2023-02-16T06:47:41.276Z,27.50
2023-02-16T06:50:10.964Z,29.05
2023-02-16T06:52:38.892Z,28.17
2023-02-16T06:55:08.442Z,29.08
2023-02-16T06:57:36.269Z,28.65
2023-02-16T07:00:07.096Z,27.88
2023-02-16T07:02:36.145Z,27.27
2023-02-16T07:05:04.896Z,26.53
2023-02-16T07:07:32.942Z,38.85
2023-02-16T07:10:01.112Z,35.30
2023-02-16T07:12:30.142Z,28.60
2023-02-16T07:14:59.259Z,28.98
2023-02-16T07:17:27.381Z,31.63
2023-02-16T07:19:56.957Z,33.95
2023-02-16T07:22:26.307Z,35.10
2023-02-16T07:24:57.706Z,31.50
2023-02-16T07:27:25.739Z,33.25
2023-02-16T07:29:54.163Z,27.50
2023-02-16T07:32:22.089Z,26.05
2023-02-16T07:34:50.689Z,28.65
2023-02-16T07:37:18.592Z,29.15
2023-02-16T07:39:47.041Z,31.52
2023-02-16T07:42:15.084Z,28.10
2023-02-16T07:45:01.825Z,27.15
2023-02-16T07:47:29.646Z,29.55
2023-02-16T07:49:58.138Z,32.25
2023-02-16T07:52:34.741Z,27.90
2023-02-16T07:55:10.629Z,26.17
2023-02-16T07:57:48.705Z,28.20
2023-02-16T08:00:24.103Z,26.65
2023-02-16T08:02:52.400Z,29.92
2023-02-16T08:05:20.968Z,31.92
2023-02-16T08:07:48.768Z,32.00
2023-02-16T08:10:17.338Z,33.10
2023-02-16T08:12:45.079Z,35.22
2023-02-16T08:15:13.409Z,37.50
2023-02-16T08:17:41.505Z,35.90
2023-02-16T08:20:10.229Z,27.70
2023-02-16T08:22:38.279Z,29.15
2023-02-16T08:25:07.364Z,30.02
2023-02-16T08:27:36.171Z,28.10
2023-02-16T08:30:04.941Z,26.20
2023-02-16T08:32:32.773Z,23.60
2023-02-16T08:35:01.195Z,26.27
2023-02-16T08:37:29.300Z,25.67
2023-02-16T08:40:01.695Z,26.42
2023-02-16T08:42:30.343Z,26.77
2023-02-16T08:44:59.436Z,28.43
2023-02-16T08:47:30.105Z,28.58
2023-02-16T08:57:36.229Z,44.92
2023-02-16T09:03:36.826Z,26.17
2023-02-16T09:06:42.520Z,29.30
2023-02-16T09:09:13.456Z,30.10
2023-02-16T09:11:41.432Z,31.20
2023-02-16T09:14:12.751Z,26.93
2023-02-16T09:16:46.112Z,29.65
2023-02-16T09:19:18.812Z,32.08
2023-02-16T09:21:49.208Z,30.90
2023-02-16T09:24:18.571Z,30.80
2023-02-16T09:26:46.872Z,27.57
2023-02-16T09:29:15.304Z,25.90
2023-02-16T09:31:44.729Z,25.48
2023-02-16T09:35:07.510Z,25.50
2023-02-16T09:37:35.310Z,26.65
2023-02-16T09:40:05.383Z,24.47
2023-02-16T09:42:46.216Z,23.85
2023-02-16T09:45:20.862Z,24.75
2023-02-16T09:47:51.501Z,24.65
2023-02-16T09:50:50.367Z,25.63
2023-02-16T09:53:34.484Z,24.13
2023-02-16T09:56:47.454Z,25.27
2023-02-16T09:59:51.054Z,23.30
2023-02-16T10:02:19.464Z,23.95
2023-02-16T10:05:13.562Z,22.13
2023-02-16T10:08:23.296Z,24.03
2023-02-16T10:11:04.096Z,24.75
2023-02-16T10:13:54.381Z,25.60
2023-02-16T10:16:32.695Z,25.02
2023-02-16T10:19:18.370Z,24.10
2023-02-16T10:21:51.789Z,25.63
2023-02-16T10:24:21.007Z,25.33
2023-02-16T10:26:54.855Z,24.13
2023-02-16T10:29:24.445Z,23.80
2023-02-16T10:32:08.010Z,24.38
2023-02-16T10:35:00.245Z,21.40
2023-02-16T10:38:00.820Z,23.98
2023-02-16T10:40:44.690Z,23.30
2023-02-16T10:43:37.001Z,23.77
2023-02-16T10:46:06.531Z,23.90
2023-02-16T10:48:34.970Z,24.03
2023-02-16T10:51:13.125Z,23.75
2023-02-16T10:54:35.868Z,24.05
2023-02-16T10:57:16.427Z,24.33
2023-02-16T10:59:46.509Z,26.38
2023-02-16T11:02:24.185Z,24.97
2023-02-16T11:04:54.882Z,21.52
2023-02-16T11:10:52.875Z,20.75
2023-02-16T11:13:36.451Z,22.50
2023-02-16T11:16:14.858Z,20.97
2023-02-16T11:19:08.164Z,24.42
2023-02-16T11:21:59.260Z,19.80
2023-02-16T11:24:38.069Z,21.65
2023-02-16T11:27:14.323Z,20.25
2023-02-16T11:29:42.773Z,19.87
2023-02-16T11:32:16.639Z,19.48
2023-02-16T11:34:48.522Z,20.42
2023-02-16T11:37:34.254Z,25.15
2023-02-16T11:40:19.004Z,20.40
2023-02-16T11:42:53.717Z,20.90
2023-02-16T11:45:33.026Z,21.90
2023-02-16T11:48:02.767Z,21.55
2023-02-16T11:50:32.609Z,22.75
2023-02-16T11:53:23.376Z,20.75
2023-02-16T11:59:14.424Z,22.02
2023-02-16T12:02:13.862Z,28.42
2023-02-16T12:05:11.003Z,27.83
2023-02-16T12:08:33.742Z,18.73
2023-02-16T12:11:28.582Z,17.23
2023-02-16T12:14:18.194Z,17.67
2023-02-16T12:17:28.471Z,17.42
2023-02-16T12:20:15.364Z,62.88
2023-02-16T12:22:48.938Z,33.42
2023-02-16T12:25:23.782Z,19.50
2023-02-16T12:28:11.946Z,17.98
2023-02-16T12:30:45.467Z,15.93
2023-02-16T12:33:48.474Z,19.75
2023-02-16T12:36:32.106Z,18.05
2023-02-16T12:39:18.214Z,21.47
2023-02-16T12:41:53.486Z,17.15
2023-02-16T12:44:51.295Z,17.20
2023-02-16T12:47:41.586Z,23.63
2023-02-16T12:50:20.684Z,16.70
2023-02-16T12:52:52.676Z,17.40
2023-02-16T12:55:42.217Z,18.45
2023-02-16T12:58:23.468Z,18.98
2023-02-16T13:01:20.276Z,21.83
2023-02-16T13:04:18.419Z,28.33
2023-02-16T13:07:17.538Z,17.63
2023-02-16T13:09:58.864Z,18.73
2023-02-16T13:12:51.418Z,19.55
2023-02-16T13:15:32.202Z,22.17
2023-02-16T13:18:10.870Z,22.77
2023-02-16T13:20:46.330Z,19.50
2023-02-16T13:23:26.736Z,23.67
2023-02-16T13:26:32.260Z,18.98
2023-02-16T13:29:30.506Z,18.65
2023-02-16T13:32:20.183Z,19.00
2023-02-16T13:38:52.064Z,19.83
2023-02-16T13:41:57.716Z,20.77
2023-02-16T13:44:47.451Z,16.80
2023-02-16T13:47:22.511Z,18.55
2023-02-16T13:50:05.080Z,17.57
2023-02-16T13:52:40.178Z,16.63
2023-02-16T13:55:28.962Z,17.85
2023-02-16T13:58:05.074Z,36.45
2023-02-16T14:00:37.427Z,19.35
2023-02-16T14:03:10.402Z,17.77
2023-02-16T14:05:44.611Z,16.75
2023-02-16T14:08:12.978Z,28.20
2023-02-16T14:10:56.783Z,18.65
2023-02-16T14:13:40.355Z,17.58
2023-02-16T14:16:12.370Z,19.20
2023-02-16T14:18:54.642Z,20.85
2023-02-16T14:21:44.504Z,18.50
2023-02-16T14:24:27.864Z,16.95
2023-02-16T14:27:04.660Z,19.35
2023-02-16T14:29:54.945Z,16.60
2023-02-16T14:32:34.283Z,18.08
2023-02-16T14:35:45.199Z,16.85
2023-02-16T14:38:36.520Z,19.35
2023-02-16T14:41:16.339Z,18.02
2023-02-16T14:43:48.804Z,16.50
2023-02-16T14:46:30.287Z,15.80
2023-02-16T14:49:17.529Z,18.23
2023-02-16T14:52:04.257Z,16.05
2023-02-16T14:55:17.746Z,17.33
2023-02-16T14:58:41.861Z,17.13
2023-02-16T15:01:18.544Z,20.25
2023-02-16T15:03:48.581Z,22.00
2023-02-16T15:06:41.023Z,19.17
2023-02-16T15:09:17.723Z,17.80
2023-02-16T15:12:13.888Z,18.87
2023-02-16T15:14:56.999Z,19.00
2023-02-16T15:17:25.837Z,21.35
2023-02-16T15:19:57.338Z,19.33
2023-02-16T15:22:27.615Z,19.42
2023-02-16T15:24:57.798Z,21.30
2023-02-16T15:27:30.581Z,22.45
2023-02-16T15:30:07.341Z,23.52
2023-02-16T15:32:36.318Z,21.88
2023-02-16T15:35:24.999Z,21.67
2023-02-16T15:38:07.123Z,22.00
2023-02-16T15:40:36.652Z,22.73
2023-02-16T15:43:19.365Z,23.35
2023-02-16T15:45:53.155Z,34.83
2023-02-16T15:48:31.069Z,24.52
2023-02-16T15:51:12.630Z,20.57
2023-02-16T15:53:54.197Z,22.23
2023-02-16T15:56:40.898Z,22.13
2023-02-16T16:02:55.253Z,34.47
2023-02-16T16:05:42.420Z,31.73
2023-02-16T16:08:15.210Z,34.67
2023-02-16T16:10:46.892Z,39.75
2023-02-16T16:13:28.053Z,40.10
2023-02-16T16:16:02.835Z,38.10
2023-02-16T16:18:49.682Z,36.80
2023-02-16T16:21:23.871Z,40.67
2023-02-16T16:24:04.056Z,41.78
2023-02-16T16:26:50.993Z,41.25
2023-02-16T16:29:35.386Z,44.95
2023-02-16T16:32:06.094Z,37.03
2023-02-16T16:34:39.638Z,42.38
2023-02-16T16:37:22.868Z,39.22
2023-02-16T16:40:07.735Z,33.28
2023-02-16T16:42:42.431Z,33.63
2023-02-16T16:45:22.447Z,29.00
2023-02-16T16:47:52.375Z,28.77
2023-02-16T16:51:17.104Z,29.25
2023-02-16T16:57:31.179Z,27.60
2023-02-16T16:59:59.679Z,26.70
2023-02-16T17:02:27.604Z,26.35
2023-02-16T17:04:58.293Z,28.52
2023-02-16T17:07:27.257Z,29.70
2023-02-16T17:09:56.569Z,30.17
2023-02-16T17:12:28.344Z,32.57
2023-02-16T17:16:26.525Z,29.98
2023-02-16T17:19:16.135Z,29.13
2023-02-16T17:21:45.492Z,30.67
2023-02-16T17:24:14.183Z,29.02
2023-02-16T17:27:12.384Z,31.63
2023-02-16T17:29:57.789Z,30.05
2023-02-16T17:32:25.743Z,31.13
2023-02-16T17:34:54.481Z,33.30
2023-02-16T17:37:22.830Z,31.73
2023-02-16T17:39:51.548Z,30.10
2023-02-16T17:42:19.504Z,31.00
2023-02-16T17:44:47.936Z,33.03
2023-02-16T17:47:17.462Z,31.88
2023-02-16T17:49:46.042Z,31.30
2023-02-16T17:52:14.111Z,29.93
2023-02-16T17:54:42.574Z,26.63
2023-02-16T17:57:11.011Z,28.05
2023-02-16T17:59:41.645Z,30.40
2023-02-16T18:02:12.472Z,34.35
2023-02-16T18:04:43.948Z,31.37
2023-02-16T18:07:15.827Z,34.97
2023-02-16T18:09:46.106Z,36.92
2023-02-16T18:12:17.498Z,36.55
2023-02-16T18:14:45.788Z,36.60
2023-02-16T18:17:14.012Z,36.00
2023-02-16T18:19:44.842Z,30.83
2023-02-16T18:22:37.769Z,30.88
2023-02-16T18:25:07.074Z,32.10
2023-02-16T18:27:35.011Z,34.00
2023-02-16T18:30:04.238Z,33.17
2023-02-16T18:32:32.130Z,33.10
2023-02-16T18:35:00.498Z,33.97
2023-02-16T18:37:28.364Z,33.15
2023-02-16T18:39:57.442Z,38.63
2023-02-16T18:42:25.543Z,43.30
2023-02-16T18:44:55.168Z,46.80
2023-02-16T18:47:24.282Z,43.65
2023-02-16T18:49:53.219Z,47.72
2023-02-16T18:52:21.802Z,39.85
2023-02-16T18:54:51.130Z,38.10
2023-02-16T18:57:19.460Z,39.25
2023-02-16T18:59:48.400Z,39.72
2023-02-16T19:02:17.256Z,42.45
2023-02-16T19:04:45.911Z,35.33
2023-02-16T19:07:15.033Z,34.80
2023-02-16T19:09:45.504Z,32.60
2023-02-16T19:12:13.915Z,33.28
2023-02-16T19:14:42.810Z,26.20
2023-02-16T19:17:11.783Z,31.30
2023-02-16T19:19:42.051Z,25.20
2023-02-16T19:22:10.680Z,24.30
2023-02-16T19:24:40.242Z,24.30
2023-02-16T19:27:08.186Z,24.13
2023-02-16T19:29:36.516Z,24.25
2023-02-16T19:32:04.738Z,26.73
2023-02-16T19:34:34.395Z,29.15
2023-02-16T19:37:03.627Z,32.42
2023-02-16T19:39:32.924Z,31.90
2023-02-16T19:42:05.784Z,28.90
2023-02-16T19:44:35.497Z,35.00
2023-02-16T19:47:07.297Z,35.83
2023-02-16T19:49:36.740Z,38.03
2023-02-16T19:52:05.429Z,37.55
2023-02-16T19:54:35.230Z,34.58
2023-02-16T19:57:04.766Z,34.93
2023-02-16T19:59:33.806Z,34.78
2023-02-16T20:02:02.043Z,36.13
2023-02-16T20:04:30.433Z,35.28
2023-02-16T20:06:58.484Z,26.88
2023-02-16T20:09:26.701Z,30.07
2023-02-16T20:11:54.511Z,24.90
2023-02-16T20:14:22.715Z,24.25
2023-02-16T20:16:52.663Z,24.10
2023-02-16T20:19:20.982Z,24.98
2023-02-16T20:21:48.724Z,23.40
2023-02-16T20:24:17.030Z,24.40
2023-02-16T20:26:46.550Z,26.80
2023-02-16T20:29:18.188Z,24.33
2023-02-16T20:31:55.451Z,33.00
2023-02-16T20:34:26.492Z,31.77
2023-02-16T20:36:54.730Z,37.33
2023-02-16T20:39:23.687Z,35.45
2023-02-16T20:41:51.685Z,28.75
2023-02-16T20:44:20.169Z,34.75
2023-02-16T20:46:48.284Z,39.63
2023-02-16T20:49:16.685Z,37.50
2023-02-16T20:51:45.088Z,40.13
2023-02-16T20:54:13.796Z,39.80
2023-02-16T20:56:41.720Z,32.95
2023-02-16T20:59:12.535Z,34.37
2023-02-16T21:01:52.362Z,30.67
2023-02-16T21:04:21.159Z,26.75
2023-02-16T21:06:49.598Z,27.30
2023-02-16T21:09:18.286Z,24.98
2023-02-16T21:11:46.068Z,25.07
2023-02-16T21:14:14.383Z,22.80
2023-02-16T21:16:42.491Z,21.27
2023-02-16T21:19:22.085Z,20.65
2023-02-16T21:21:52.032Z,20.45
2023-02-16T21:24:20.329Z,20.87
2023-02-16T21:26:48.815Z,20.75
2023-02-16T21:29:17.009Z,20.95
2023-02-16T21:31:45.065Z,21.08
2023-02-16T21:34:13.399Z,21.80
2023-02-16T21:36:41.628Z,25.33
2023-02-16T21:39:09.768Z,22.73
2023-02-16T21:41:37.955Z,22.85
2023-02-16T21:44:15.074Z,21.85
2023-02-16T21:46:45.448Z,23.73
2023-02-16T21:49:20.093Z,27.43
2023-02-16T21:51:48.735Z,25.30
2023-02-16T21:55:03.322Z,23.45
2023-02-16T21:57:31.152Z,23.25
2023-02-16T21:59:59.381Z,23.98
2023-02-16T22:02:27.357Z,26.90
2023-02-16T22:04:55.428Z,28.38
2023-02-16T22:07:23.172Z,24.52
2023-02-16T22:09:51.448Z,26.83
2023-02-16T22:12:19.220Z,26.88
2023-02-16T22:14:48.319Z,29.90
2023-02-16T22:17:16.216Z,28.15
2023-02-16T22:19:44.266Z,25.90
2023-02-16T22:22:12.044Z,24.85
2023-02-16T22:24:40.322Z,25.30
2023-02-16T22:27:08.192Z,24.17
2023-02-16T22:29:36.158Z,24.02
2023-02-16T22:32:04.105Z,24.95
2023-02-16T22:34:32.178Z,24.58
2023-02-16T22:37:00.298Z,26.80
2023-02-16T22:39:30.552Z,25.70
2023-02-16T22:41:59.743Z,27.70
2023-02-16T22:44:28.172Z,28.90
2023-02-16T22:46:56.147Z,28.17
2023-02-16T22:49:24.297Z,27.85
2023-02-16T22:51:52.492Z,25.87
2023-02-16T22:54:21.120Z,27.15
2023-02-16T22:56:48.909Z,25.25
2023-02-16T22:59:17.176Z,25.98
2023-02-16T23:01:45.032Z,30.48
2023-02-16T23:04:16.451Z,26.03
2023-02-16T23:06:45.711Z,26.75
2023-02-16T23:09:20.216Z,24.75
2023-02-16T23:11:50.176Z,25.00
2023-02-16T23:14:19.630Z,24.35
2023-02-16T23:16:51.079Z,24.73
2023-02-16T23:19:24.652Z,26.58
2023-02-16T23:21:54.562Z,33.22
2023-02-16T23:24:24.073Z,33.53
2023-02-16T23:26:52.979Z,31.83
2023-02-16T23:29:21.428Z,25.63
2023-02-16T23:31:49.566Z,27.75
2023-02-16T23:34:18.827Z,29.38
2023-02-16T23:36:47.071Z,34.10
2023-02-16T23:39:18.445Z,32.95
2023-02-16T23:41:46.368Z,27.73
2023-02-16T23:44:15.813Z,25.05
2023-02-16T23:46:43.645Z,26.80
2023-02-16T23:49:11.718Z,23.52
2023-02-16T23:51:39.567Z,22.65
2023-02-16T23:54:09.915Z,24.20
2023-02-16T23:56:37.663Z,23.10
2023-02-16T23:59:05.735Z,22.17
